createdAt,value
2023-09-07T00:02:16.108Z,5.93
2023-09-07T00:04:44.398Z,5.90
2023-09-07T00:07:12.521Z,6.33
2023-09-07T00:09:40.262Z,6.87
2023-09-07T00:12:08.407Z,5.97
2023-09-07T00:14:37.521Z,6.13
2023-09-07T00:17:05.997Z,6.37
2023-09-07T00:19:38.020Z,5.10
2023-09-07T00:22:06.686Z,5.50
2023-09-07T00:24:34.446Z,6.10
2023-09-07T00:27:02.159Z,6.50
2023-09-07T00:29:29.824Z,6.20
2023-09-07T00:31:58.920Z,6.80
2023-09-07T00:34:26.807Z,6.57
2023-09-07T00:36:54.543Z,5.87
2023-09-07T00:39:22.326Z,5.73
2023-09-07T00:41:50.135Z,6.33
2023-09-07T00:44:17.872Z,5.60
2023-09-07T00:46:46.000Z,6.23
2023-09-07T00:49:16.381Z,6.23
2023-09-07T00:51:44.161Z,5.63
2023-09-07T00:54:11.987Z,5.93
2023-09-07T00:56:39.705Z,7.13
2023-09-07T00:59:09.621Z,5.60
2023-09-07T01:01:38.040Z,5.80
2023-09-07T01:04:07.707Z,5.43
2023-09-07T01:06:41.279Z,5.40
2023-09-07T01:09:19.357Z,5.23
2023-09-07T01:11:47.413Z,6.10
2023-09-07T01:14:15.177Z,6.37
2023-09-07T01:16:43.495Z,5.50
2023-09-07T01:19:11.738Z,5.27
2023-09-07T01:21:41.474Z,5.30
2023-09-07T01:24:11.270Z,5.40
2023-09-07T01:26:40.266Z,5.97
2023-09-07T01:29:09.488Z,4.73
2023-09-07T01:31:38.746Z,5.97
2023-09-07T01:34:07.403Z,5.70
2023-09-07T01:36:35.296Z,5.93
2023-09-07T01:39:06.782Z,6.10
2023-09-07T01:41:35.485Z,5.83
2023-09-07T01:44:03.450Z,5.60
2023-09-07T01:46:31.510Z,5.50
2023-09-07T01:48:59.330Z,6.00
2023-09-07T01:51:28.829Z,6.07
2023-09-07T01:53:56.753Z,5.80
2023-09-07T01:56:25.982Z,6.43
2023-09-07T01:58:53.840Z,5.93
2023-09-07T02:01:25.720Z,6.07
2023-09-07T02:03:53.673Z,5.70
2023-09-07T02:06:21.819Z,7.03
2023-09-07T02:08:49.677Z,6.00
2023-09-07T02:11:17.759Z,6.70
2023-09-07T02:13:49.454Z,5.70
2023-09-07T02:16:17.338Z,7.60
2023-09-07T02:18:47.982Z,7.33
2023-09-07T02:21:15.892Z,6.30
2023-09-07T02:23:44.871Z,6.60
2023-09-07T02:26:12.676Z,7.33
2023-09-07T02:28:40.667Z,7.60
2023-09-07T02:31:11.252Z,6.03
2023-09-07T02:33:39.229Z,5.23
2023-09-07T02:36:07.438Z,7.70
2023-09-07T02:38:35.464Z,6.70
2023-09-07T02:41:04.376Z,5.80
2023-09-07T02:43:32.210Z,5.63
2023-09-07T02:46:00.628Z,6.33
2023-09-07T02:48:30.066Z,6.40
2023-09-07T02:50:59.385Z,7.63
2023-09-07T02:53:27.372Z,6.93
2023-09-07T02:55:55.135Z,6.10
2023-09-07T02:58:24.736Z,6.00
2023-09-07T03:00:53.828Z,6.23
2023-09-07T03:03:23.269Z,5.90
2023-09-07T03:05:52.747Z,5.43
2023-09-07T03:08:21.332Z,5.50
2023-09-07T03:10:49.046Z,6.07
2023-09-07T03:13:16.767Z,6.80
2023-09-07T03:15:45.387Z,5.53
2023-09-07T03:18:14.819Z,5.23
2023-09-07T03:20:44.057Z,5.50
2023-09-07T03:23:13.678Z,5.13
2023-09-07T03:25:41.601Z,6.47
2023-09-07T03:28:09.519Z,5.67
2023-09-07T03:30:38.403Z,5.50
2023-09-07T03:33:07.624Z,5.47
2023-09-07T03:35:35.405Z,4.93
2023-09-07T03:38:03.742Z,5.90
2023-09-07T03:40:32.983Z,5.90
2023-09-07T03:43:00.881Z,5.33
2023-09-07T03:45:29.217Z,6.00
2023-09-07T03:47:57.584Z,6.00
2023-09-07T03:50:25.417Z,5.97
2023-09-07T03:52:53.416Z,6.10
2023-09-07T03:55:23.105Z,5.80
2023-09-07T03:57:52.668Z,8.07
2023-09-07T04:00:20.971Z,5.73
2023-09-07T04:02:49.904Z,5.30
2023-09-07T04:05:17.951Z,6.33
2023-09-07T04:07:45.674Z,5.57
2023-09-07T04:10:13.427Z,6.60
2023-09-07T04:12:41.234Z,5.03
2023-09-07T04:15:11.884Z,6.20
2023-09-07T04:17:42.225Z,6.50
2023-09-07T04:20:12.885Z,5.50
2023-09-07T04:22:40.988Z,6.00
2023-09-07T04:25:09.360Z,5.87
2023-09-07T04:27:38.420Z,6.27
2023-09-07T04:30:08.181Z,5.40
2023-09-07T04:32:37.805Z,5.37
2023-09-07T04:35:06.169Z,5.73
2023-09-07T04:37:33.901Z,5.67
2023-09-07T04:40:01.691Z,6.43
2023-09-07T04:42:30.261Z,5.50
2023-09-07T04:44:58.053Z,5.67
2023-09-07T04:47:25.903Z,6.50
2023-09-07T04:49:55.127Z,5.77
2023-09-07T04:52:24.249Z,7.17
2023-09-07T04:54:51.934Z,6.53
2023-09-07T04:57:20.890Z,5.90
2023-09-07T04:59:49.718Z,6.27
2023-09-07T05:02:18.411Z,6.40
2023-09-07T05:04:46.503Z,6.20
2023-09-07T05:07:15.633Z,6.43
2023-09-07T05:09:43.464Z,6.87
2023-09-07T05:12:11.767Z,6.90
2023-09-07T05:14:39.522Z,7.27
2023-09-07T05:17:07.483Z,6.43
2023-09-07T05:19:35.535Z,6.60
2023-09-07T05:22:03.358Z,6.40
2023-09-07T05:24:32.490Z,7.27
2023-09-07T05:27:00.663Z,6.40
2023-09-07T05:29:28.518Z,6.23
2023-09-07T05:31:56.269Z,6.97
2023-09-07T05:34:24.918Z,5.40
2023-09-07T05:36:52.654Z,6.27
2023-09-07T05:39:20.513Z,5.80
2023-09-07T05:41:51.748Z,5.73
2023-09-07T05:44:19.661Z,5.43
2023-09-07T05:46:48.942Z,5.80
2023-09-07T05:49:16.981Z,5.67
2023-09-07T05:51:44.730Z,5.00
2023-09-07T05:54:12.452Z,5.13
2023-09-07T05:56:40.478Z,5.90
2023-09-07T05:59:09.748Z,5.50
2023-09-07T06:01:37.575Z,5.57
2023-09-07T06:04:06.145Z,5.30
2023-09-07T06:06:34.125Z,5.30
2023-09-07T06:09:01.896Z,5.00
2023-09-07T06:11:31.269Z,4.33
2023-09-07T06:13:59.208Z,5.80
2023-09-07T06:16:28.381Z,5.40
2023-09-07T06:18:56.432Z,5.33
2023-09-07T06:21:24.414Z,5.27
2023-09-07T06:23:52.162Z,4.83
2023-09-07T06:26:20.973Z,5.20
2023-09-07T06:28:49.029Z,4.43
2023-09-07T06:31:19.443Z,4.97
2023-09-07T06:33:49.436Z,6.13
2023-09-07T06:36:17.352Z,4.60
2023-09-07T06:38:45.237Z,4.77
2023-09-07T06:41:13.349Z,4.20
2023-09-07T06:43:42.501Z,4.13
2023-09-07T06:46:11.616Z,4.20
2023-09-07T06:48:39.632Z,4.70
2023-09-07T06:51:10.478Z,4.17
2023-09-07T06:53:56.319Z,4.33
2023-09-07T06:56:27.470Z,5.37
2023-09-07T06:58:56.217Z,4.00
2023-09-07T07:01:24.233Z,4.40
2023-09-07T07:03:52.446Z,4.07
2023-09-07T07:06:21.940Z,4.00
2023-09-07T07:08:49.706Z,4.50
2023-09-07T07:11:17.908Z,4.00
2023-09-07T07:13:45.695Z,4.57
2023-09-07T07:16:14.956Z,4.23
2023-09-07T07:21:30.609Z,3.90
2023-09-07T07:23:58.639Z,4.33
2023-09-07T07:26:26.750Z,5.00
2023-09-07T07:31:40.767Z,4.17
2023-09-07T07:34:08.550Z,3.80
2023-09-07T07:36:37.622Z,3.87
2023-09-07T07:39:08.092Z,4.50
2023-09-07T07:41:36.579Z,4.27
2023-09-07T07:44:04.745Z,4.27
2023-09-07T07:46:32.651Z,5.03
2023-09-07T07:49:00.666Z,5.23
2023-09-07T07:51:28.776Z,4.67
2023-09-07T07:53:58.840Z,5.43
2023-09-07T07:56:27.210Z,5.23
2023-09-07T07:58:57.006Z,4.43
2023-09-07T08:01:26.990Z,4.60
2023-09-07T08:03:56.113Z,4.37
2023-09-07T08:06:25.391Z,4.57
2023-09-07T08:08:53.644Z,4.90
2023-09-07T08:11:22.908Z,5.20
2023-09-07T08:13:53.223Z,5.50
2023-09-07T08:16:21.174Z,5.90
2023-09-07T08:18:49.327Z,5.60
2023-09-07T08:21:19.122Z,4.90
2023-09-07T08:23:47.049Z,6.20
2023-09-07T08:26:16.988Z,5.70
2023-09-07T08:28:48.146Z,4.77
2023-09-07T08:31:22.087Z,4.30
2023-09-07T08:33:51.824Z,4.40
2023-09-07T08:36:23.157Z,4.27
2023-09-07T08:38:54.565Z,5.67
2023-09-07T08:41:22.855Z,4.43
2023-09-07T08:43:56.248Z,4.73
2023-09-07T08:46:25.392Z,4.83
2023-09-07T08:48:53.497Z,4.90
2023-09-07T08:51:21.577Z,5.03
2023-09-07T08:53:50.212Z,4.23
2023-09-07T08:56:19.146Z,4.37
2023-09-07T08:58:49.022Z,4.13
2023-09-07T09:01:18.277Z,4.43
2023-09-07T09:03:47.542Z,5.03
2023-09-07T09:06:17.202Z,4.57
2023-09-07T09:08:46.019Z,4.40
2023-09-07T09:11:14.014Z,4.27
2023-09-07T09:13:42.926Z,4.87
2023-09-07T09:16:11.689Z,4.40
2023-09-07T09:18:49.216Z,4.40
2023-09-07T09:21:17.135Z,4.27
2023-09-07T09:23:45.749Z,4.20
2023-09-07T09:26:14.620Z,4.43
2023-09-07T09:28:42.379Z,5.00
2023-09-07T09:31:13.633Z,4.40
2023-09-07T09:33:43.645Z,4.23
2023-09-07T09:36:11.501Z,4.60
2023-09-07T09:38:39.208Z,4.27
2023-09-07T09:41:08.272Z,3.87
2023-09-07T09:43:36.586Z,4.50
2023-09-07T09:46:06.822Z,4.60
2023-09-07T09:48:38.255Z,4.30
2023-09-07T09:51:09.322Z,4.10
2023-09-07T09:53:38.241Z,4.50
2023-09-07T09:56:06.565Z,4.50
2023-09-07T09:58:34.886Z,4.30
2023-09-07T10:01:06.965Z,4.23
2023-09-07T10:03:37.093Z,4.20
2023-09-07T10:06:13.201Z,4.57
2023-09-07T10:08:41.183Z,4.47
2023-09-07T10:11:11.815Z,4.10
2023-09-07T10:13:39.841Z,4.07
2023-09-07T10:16:09.954Z,4.40
2023-09-07T10:18:40.123Z,4.37
2023-09-07T10:21:08.607Z,4.90
2023-09-07T10:23:42.558Z,4.77
2023-09-07T10:26:13.919Z,3.87
2023-09-07T10:28:42.410Z,4.77
2023-09-07T10:31:17.138Z,3.97
2023-09-07T10:33:45.232Z,3.80
2023-09-07T10:36:23.031Z,4.90
2023-09-07T10:38:54.154Z,4.17
2023-09-07T10:41:22.095Z,4.33
2023-09-07T10:43:51.674Z,4.10
2023-09-07T10:46:21.492Z,4.00
2023-09-07T10:48:52.752Z,3.47
2023-09-07T10:51:20.838Z,4.17
2023-09-07T10:53:48.868Z,3.77
2023-09-07T10:56:18.154Z,4.20
2023-09-07T10:58:46.141Z,3.83
2023-09-07T11:01:16.761Z,3.70
2023-09-07T11:03:46.060Z,4.03
2023-09-07T11:06:18.660Z,3.70
2023-09-07T11:08:46.493Z,3.87
2023-09-07T11:11:15.030Z,3.73
2023-09-07T11:13:44.504Z,4.23
2023-09-07T11:16:12.337Z,3.90
2023-09-07T11:18:41.621Z,4.00
2023-09-07T11:21:09.476Z,3.50
2023-09-07T11:23:39.700Z,4.33
2023-09-07T11:26:09.550Z,4.00
2023-09-07T11:28:37.345Z,3.77
2023-09-07T11:31:06.491Z,4.10
2023-09-07T11:33:35.249Z,4.30
2023-09-07T11:36:03.638Z,4.20
2023-09-07T11:38:37.016Z,3.87
2023-09-07T11:41:04.782Z,4.17
2023-09-07T11:43:32.870Z,4.30
2023-09-07T11:46:02.074Z,4.70
2023-09-07T11:48:33.428Z,4.03
2023-09-07T11:51:01.194Z,4.40
2023-09-07T11:53:29.038Z,5.10
2023-09-07T11:55:58.122Z,4.00
2023-09-07T11:58:29.429Z,4.83
2023-09-07T12:00:58.640Z,4.30
2023-09-07T12:03:26.747Z,4.30
2023-09-07T12:05:55.879Z,3.80
2023-09-07T12:08:23.609Z,4.13
2023-09-07T12:10:51.366Z,4.60
2023-09-07T12:13:19.151Z,3.90
2023-09-07T12:15:47.013Z,3.83
2023-09-07T12:18:15.046Z,4.30
2023-09-07T12:20:44.255Z,4.00
2023-09-07T12:23:13.362Z,4.23
2023-09-07T12:25:41.167Z,4.30
2023-09-07T12:28:09.771Z,4.60
2023-09-07T12:30:37.579Z,5.00
2023-09-07T12:33:05.504Z,4.20
2023-09-07T12:35:33.262Z,3.93
2023-09-07T12:38:00.987Z,3.77
2023-09-07T12:40:30.129Z,4.33
2023-09-07T12:42:57.850Z,4.30
2023-09-07T12:45:25.763Z,4.43
2023-09-07T12:47:53.592Z,4.07
2023-09-07T12:50:21.829Z,4.60
2023-09-07T12:52:49.674Z,4.20
2023-09-07T12:55:19.693Z,4.90
2023-09-07T12:57:48.942Z,4.17
2023-09-07T13:00:17.141Z,4.50
2023-09-07T13:02:45.282Z,4.40
2023-09-07T13:05:13.079Z,4.90
2023-09-07T13:07:41.964Z,4.40
2023-09-07T13:10:10.426Z,4.37
2023-09-07T13:12:38.322Z,3.87
2023-09-07T13:15:08.480Z,4.10
2023-09-07T13:17:36.252Z,4.67
2023-09-07T13:20:04.202Z,4.53
2023-09-07T13:22:33.053Z,5.10
2023-09-07T13:25:01.988Z,4.63
2023-09-07T13:27:29.804Z,5.13
2023-09-07T13:29:58.429Z,4.30
2023-09-07T13:32:27.634Z,4.70
2023-09-07T13:34:55.507Z,4.40
2023-09-07T13:37:23.378Z,4.40
2023-09-07T13:39:51.091Z,4.50
2023-09-07T13:42:18.808Z,4.57
2023-09-07T13:44:46.639Z,4.23
2023-09-07T13:47:14.469Z,4.23
2023-09-07T13:49:43.665Z,4.80
2023-09-07T13:52:11.463Z,4.73
2023-09-07T13:54:39.274Z,4.60
2023-09-07T13:57:07.108Z,4.90
2023-09-07T13:59:37.201Z,4.50
2023-09-07T14:02:05.349Z,5.00
2023-09-07T14:04:33.090Z,4.37
2023-09-07T14:07:02.295Z,5.10
2023-09-07T14:09:30.157Z,5.20
2023-09-07T14:11:57.990Z,4.40
2023-09-07T14:14:25.789Z,5.30
2023-09-07T14:16:57.855Z,4.93
2023-09-07T14:19:27.891Z,4.90
2023-09-07T14:21:55.690Z,4.73
2023-09-07T14:24:24.750Z,4.90
2023-09-07T14:26:52.695Z,4.47
2023-09-07T14:29:20.502Z,4.70
2023-09-07T14:31:48.250Z,4.90
2023-09-07T14:34:16.296Z,4.83
2023-09-07T14:36:44.022Z,4.30
2023-09-07T14:39:13.251Z,4.30
2023-09-07T14:41:44.218Z,4.40
2023-09-07T14:44:11.942Z,4.47
2023-09-07T14:46:39.672Z,4.60
2023-09-07T14:49:07.413Z,4.27
2023-09-07T14:51:35.126Z,5.00
2023-09-07T14:54:02.803Z,4.60
2023-09-07T14:56:31.666Z,4.93
2023-09-07T14:59:00.783Z,5.30
2023-09-07T15:01:28.496Z,4.50
2023-09-07T15:03:56.218Z,4.40
2023-09-07T15:06:23.930Z,4.70
2023-09-07T15:08:51.849Z,4.20
2023-09-07T15:11:19.608Z,4.23
2023-09-07T15:13:47.831Z,4.20
2023-09-07T15:16:17.034Z,3.87
2023-09-07T15:18:45.608Z,4.30
2023-09-07T15:21:13.481Z,3.70
2023-09-07T15:23:41.306Z,4.00
2023-09-07T15:26:09.268Z,4.10
2023-09-07T15:28:40.202Z,4.97
2023-09-07T15:31:08.218Z,4.30
2023-09-07T15:33:37.312Z,4.37
2023-09-07T15:36:05.419Z,4.03
2023-09-07T15:38:33.391Z,4.33
2023-09-07T15:41:05.595Z,4.13
2023-09-07T15:43:34.523Z,4.27
2023-09-07T15:46:04.622Z,4.03
2023-09-07T15:48:33.498Z,3.77
2023-09-07T15:51:02.808Z,3.80
2023-09-07T15:53:33.993Z,4.00
2023-09-07T15:56:01.894Z,4.10
2023-09-07T15:58:29.920Z,3.57
2023-09-07T16:00:59.019Z,4.57
2023-09-07T16:03:26.839Z,3.87
2023-09-07T16:05:54.605Z,3.37
2023-09-07T16:08:26.675Z,4.17
2023-09-07T16:10:56.602Z,3.80
2023-09-07T16:13:24.493Z,3.97
2023-09-07T16:15:52.213Z,3.37
2023-09-07T16:18:21.113Z,4.37
2023-09-07T16:20:50.119Z,3.63
2023-09-07T16:23:17.920Z,3.40
2023-09-07T16:25:49.262Z,4.60
2023-09-07T16:28:17.701Z,3.63
2023-09-07T16:30:45.398Z,3.47
2023-09-07T16:33:13.177Z,4.43
2023-09-07T16:35:41.007Z,3.90
2023-09-07T16:38:08.794Z,4.10
2023-09-07T16:40:38.278Z,3.73
2023-09-07T16:43:07.344Z,4.00
2023-09-07T16:45:35.113Z,4.67
2023-09-07T16:48:02.967Z,4.03
2023-09-07T16:50:30.810Z,3.97
2023-09-07T16:52:58.992Z,3.43
2023-09-07T16:55:26.700Z,3.77
2023-09-07T16:57:57.461Z,3.43
2023-09-07T17:00:26.742Z,4.00
2023-09-07T17:02:54.677Z,3.90
2023-09-07T17:05:22.711Z,4.70
2023-09-07T17:07:50.567Z,3.97
2023-09-07T17:10:18.531Z,4.10
2023-09-07T17:12:46.294Z,3.63
2023-09-07T17:15:14.081Z,4.30
2023-09-07T17:17:43.223Z,3.90
2023-09-07T17:20:11.959Z,3.47
2023-09-07T17:22:46.654Z,4.10
2023-09-07T17:25:14.447Z,3.90
2023-09-07T17:27:42.223Z,5.17
2023-09-07T17:30:10.318Z,4.13
2023-09-07T17:32:38.188Z,4.00
2023-09-07T17:35:08.600Z,4.13
2023-09-07T17:37:36.503Z,4.00
2023-09-07T17:40:04.692Z,4.07
2023-09-07T17:42:32.439Z,3.67
2023-09-07T17:45:00.253Z,4.50
2023-09-07T17:47:28.136Z,4.50
2023-09-07T17:49:55.875Z,3.90
2023-09-07T17:52:25.050Z,4.33
2023-09-07T17:54:54.099Z,4.03
2023-09-07T17:57:21.951Z,4.00
2023-09-07T17:59:52.067Z,4.63
2023-09-07T18:02:23.328Z,4.50
2023-09-07T18:04:51.577Z,4.20
2023-09-07T18:07:19.508Z,4.80
2023-09-07T18:09:49.140Z,4.37
2023-09-07T18:12:16.911Z,4.60
2023-09-07T18:14:45.371Z,4.63
2023-09-07T18:17:13.056Z,6.20
2023-09-07T18:19:40.733Z,6.23
2023-09-07T18:22:09.978Z,6.70
2023-09-07T18:24:38.313Z,4.93
2023-09-07T18:27:07.844Z,4.60
2023-09-07T18:29:36.287Z,4.90
2023-09-07T18:32:04.299Z,5.40
2023-09-07T18:34:32.168Z,5.17
2023-09-07T18:36:59.994Z,4.77
2023-09-07T18:39:27.754Z,4.97
2023-09-07T18:41:55.554Z,4.87
2023-09-07T18:44:24.657Z,4.87
2023-09-07T18:46:52.701Z,5.00
2023-09-07T18:49:20.600Z,4.90
2023-09-07T18:51:48.545Z,4.70
2023-09-07T18:54:17.044Z,4.43
2023-09-07T18:56:44.730Z,4.67
2023-09-07T18:59:12.552Z,4.67
2023-09-07T19:01:41.684Z,4.63
2023-09-07T19:04:11.399Z,5.20
2023-09-07T19:06:39.565Z,4.67
2023-09-07T19:09:07.470Z,4.90
2023-09-07T19:11:35.489Z,3.90
2023-09-07T19:14:04.426Z,5.00
2023-09-07T19:16:32.196Z,4.93
2023-09-07T19:19:01.572Z,4.47
2023-09-07T19:21:30.654Z,4.70
2023-09-07T19:24:00.298Z,4.90
2023-09-07T19:26:30.011Z,4.77
2023-09-07T19:28:58.138Z,4.37
2023-09-07T19:31:26.449Z,4.73
2023-09-07T19:33:55.462Z,5.10
2023-09-07T19:36:25.286Z,5.63
2023-09-07T19:38:55.196Z,4.20
2023-09-07T19:41:23.618Z,5.70
2023-09-07T19:43:51.959Z,5.80
2023-09-07T19:46:19.861Z,5.10
2023-09-07T19:48:49.026Z,5.20
2023-09-07T19:51:18.729Z,5.67
2023-09-07T19:53:48.563Z,4.60
2023-09-07T19:56:17.641Z,4.80
2023-09-07T19:58:45.748Z,5.30
2023-09-07T20:01:14.924Z,5.43
2023-09-07T20:03:45.405Z,6.00
2023-09-07T20:06:13.867Z,5.57
2023-09-07T20:08:42.353Z,6.13
2023-09-07T20:11:12.711Z,5.40
2023-09-07T20:13:40.624Z,5.83
2023-09-07T20:16:12.195Z,5.30
2023-09-07T20:18:40.959Z,6.00
2023-09-07T20:21:08.855Z,5.53
2023-09-07T20:23:37.101Z,5.60
2023-09-07T20:26:05.492Z,6.20
2023-09-07T20:28:34.956Z,5.97
2023-09-07T20:31:03.195Z,5.40
2023-09-07T20:33:31.109Z,6.07
2023-09-07T20:35:58.898Z,6.70
2023-09-07T20:38:26.738Z,6.33
2023-09-07T20:40:54.536Z,5.90
2023-09-07T20:43:24.233Z,5.40
2023-09-07T20:45:54.872Z,5.03
2023-09-07T20:48:23.029Z,5.77
2023-09-07T20:50:51.642Z,5.50
2023-09-07T20:53:19.697Z,4.87
2023-09-07T20:55:47.416Z,5.40
2023-09-07T20:58:15.587Z,6.10
2023-09-07T21:00:43.370Z,4.93
2023-09-07T21:03:12.673Z,5.90
2023-09-07T21:05:40.891Z,5.50
2023-09-07T21:08:08.593Z,5.50
2023-09-07T21:10:36.282Z,6.20
2023-09-07T21:13:04.727Z,6.03
2023-09-07T21:15:32.987Z,5.97
2023-09-07T21:18:00.909Z,5.57
2023-09-07T21:20:30.665Z,5.80
2023-09-07T21:22:58.359Z,6.47
2023-09-07T21:25:26.103Z,5.53
2023-09-07T21:27:53.817Z,5.60
2023-09-07T21:30:21.849Z,6.13
2023-09-07T21:32:49.641Z,5.47
2023-09-07T21:35:17.692Z,5.97
2023-09-07T21:37:46.884Z,6.37
2023-09-07T21:40:14.904Z,6.30
2023-09-07T21:42:42.689Z,5.40
2023-09-07T21:45:11.105Z,6.03
2023-09-07T21:47:38.839Z,6.57
2023-09-07T21:50:08.453Z,6.80
2023-09-07T21:52:36.366Z,5.80
2023-09-07T21:55:06.121Z,6.50
2023-09-07T21:57:33.914Z,6.77
2023-09-07T22:00:05.552Z,6.93
2023-09-07T22:02:40.145Z,6.53
2023-09-07T22:05:08.630Z,6.00
2023-09-07T22:07:36.390Z,6.30
2023-09-07T22:10:06.021Z,5.40
2023-09-07T22:12:33.747Z,6.93
2023-09-07T22:15:01.504Z,6.43
2023-09-07T22:17:29.647Z,6.03
2023-09-07T22:19:57.638Z,6.70
2023-09-07T22:22:27.470Z,6.60
2023-09-07T22:24:55.350Z,6.67
2023-09-07T22:27:26.149Z,6.97
2023-09-07T22:29:54.199Z,7.70
2023-09-07T22:32:22.139Z,5.80
2023-09-07T22:34:49.960Z,6.57
2023-09-07T22:37:18.894Z,7.40
2023-09-07T22:39:47.446Z,6.33
2023-09-07T22:42:15.147Z,7.13
2023-09-07T22:44:44.645Z,6.20
2023-09-07T22:47:12.482Z,6.10
2023-09-07T22:49:40.291Z,6.77
2023-09-07T22:52:08.065Z,6.67
2023-09-07T22:54:35.841Z,6.37
2023-09-07T22:57:03.685Z,6.33
2023-09-07T22:59:31.454Z,7.07
2023-09-07T23:02:00.620Z,6.60
2023-09-07T23:04:28.478Z,6.43
2023-09-07T23:06:56.777Z,5.60
2023-09-07T23:09:27.980Z,6.00
2023-09-07T23:11:55.825Z,6.10
2023-09-07T23:14:23.619Z,7.30
2023-09-07T23:16:52.670Z,5.70
2023-09-07T23:19:21.954Z,6.60
2023-09-07T23:21:49.977Z,6.50
2023-09-07T23:24:18.926Z,6.63
2023-09-07T23:26:47.721Z,6.27
2023-09-07T23:29:15.426Z,6.87
2023-09-07T23:31:44.807Z,6.23
2023-09-07T23:34:12.801Z,6.20
2023-09-07T23:36:41.968Z,6.37
2023-09-07T23:39:09.841Z,6.00
2023-09-07T23:41:37.554Z,7.20
2023-09-07T23:44:05.570Z,6.97
2023-09-07T23:46:33.522Z,6.53
2023-09-07T23:49:01.436Z,7.00
2023-09-07T23:51:29.272Z,7.13
2023-09-07T23:53:58.429Z,7.73
2023-09-07T23:56:26.110Z,7.40
2023-09-07T23:58:53.866Z,6.90
